Pagrindinis puslapis
METAR-TAF:

METAR-TAF

Oro uostai :

Kalabrijos Redžas, Italija

platuma: 38-04N, ilguma: 015-39E, Aukštis: 11 m

Dabartinis oras

Ataskaita buvo paskelbta 1 valandą ir 19 minutes, ne 05:50 UTC
Vėjas 9 kt iš Šiaurės/Šiaurės Vakarų
Temperatūra 21°C
Drėgmė 69%
Slėgis 1011 hPa
Matomumas 10 km arba daugiau
nėra debesų žemiau 1500 m ir nėra kamuolinių lietaus debesų

METAR: LICR 070550Z 34009KT CAVOK 21/15 Q1011 RMK VIS MIN 9999

Laikas: 09:09 (07:09 UTC)

Prognozė

Ataskaita buvo paskelbta 2 valandos ir 9 minutes, ne 05:00 UTC
Prognozė galioja nuo 07 metu 06 UTC su 08 metu 06 UTC
Vėjas 8 kt iš Pietų
Matomumas 10 km arba daugiau
Išsisklaidę debesys ne aukštis 2500 ft
Laikinai
nuo 07 metu 21 UTC su 08 metu 06 UTC
lietus

TAF: LICR 070500Z 0706/0806 18008KT 9999 SCT025 TEMPO 0721/0806 SHRA

Orai ataskaitas ir orų prognozės (METAR, TAF).

turimą stotys yra geltonos ir raudonos taškus žemėlapyje.

Perkelti pele per norėdami pamatyti stoties vardą.

Tada spustelėkite, norėdami matyti oro stebėjimo ir prognozės.

Norėdami pakeisti žemėlapį: spustelėkite ant žalios mygtukų su juodo kryžiaus žemyn,; žalią mygtuką su brūkšneliu, jei norite nutolinti; arba žalių rodyklių gretimoms žemėlapius.


METAR-TAF: